Granville, North Dakota
Current Conditions -  °F | °C
As of 6:54 PM on Tuesday 21 Oct 2014 (Local Time) from KMOT Reporting Station
Clear Clear  
Wind Chill: 63°   Ceiling: Unl
Heat Index: 63°   Visibility: 10mi
Dew Point: 43°   Wind: 3mph
Humidity: 48%   Direction: 90°E
Pressure: 29.61"   Gusts: NA
Location:  48.27°N, 100.84°W
Report Text: KMOT 212354Z 09003KT 10SM CLR 17/06 A2961 RMK AO2 SLP030 T01720061 10228 20172 56010
Loading
Personal Weather Stations






























Interactive Weather Map
Tropical Storm Tracking
New forecast layout! Learn more

10-Day Weather Forecast

Advertisements
Track Severe Weather on mobile